createdAt,value
2018-08-27T06:45:01.526Z,156
2018-08-27T06:46:03.252Z,164
2018-08-27T06:47:04.950Z,152
2018-08-27T06:48:06.870Z,144
2018-08-27T06:49:08.876Z,148
2018-08-27T06:50:10.671Z,152
2018-08-27T06:51:12.815Z,168
2018-08-27T06:52:14.573Z,180
2018-08-27T06:53:16.980Z,272
2018-08-27T06:54:18.749Z,304
2018-08-27T06:55:20.706Z,312
2018-08-27T06:56:22.438Z,312
2018-08-27T06:57:24.562Z,292
2018-08-27T06:58:26.162Z,288
2018-08-27T06:59:27.988Z,296
2018-08-27T07:00:29.868Z,280
2018-08-27T07:01:31.705Z,204
2018-08-27T07:02:33.601Z,188
2018-08-27T07:03:35.959Z,204
2018-08-27T07:04:38.188Z,320
2018-08-27T07:05:40.355Z,320
2018-08-27T07:06:43.751Z,360
2018-08-27T07:07:46.027Z,372
2018-08-27T07:08:47.818Z,420
2018-08-27T07:09:50.457Z,400
2018-08-27T07:10:52.591Z,304
2018-08-27T07:11:54.860Z,252
2018-08-27T07:12:57.204Z,252
2018-08-27T07:13:59.316Z,240
2018-08-27T07:15:01.335Z,228
2018-08-27T07:16:03.522Z,284
2018-08-27T07:17:05.607Z,396
2018-08-27T07:18:07.782Z,376
2018-08-27T07:19:09.936Z,444
2018-08-27T07:20:12.008Z,424
2018-08-27T07:21:14.321Z,356
2018-08-27T07:22:16.649Z,432
2018-08-27T07:23:18.652Z,416
2018-08-27T07:24:21.071Z,400
2018-08-27T07:25:23.280Z,320
2018-08-27T07:26:25.378Z,292
2018-08-27T07:27:27.757Z,436
2018-08-27T07:28:29.813Z,600
2018-08-27T07:29:31.852Z,852
2018-08-27T07:30:34.633Z,744
2018-08-27T07:31:36.852Z,800
2018-08-27T07:32:38.957Z,768
2018-08-27T07:33:41.527Z,700
2018-08-27T07:34:43.825Z,688
2018-08-27T07:35:45.933Z,592
2018-08-27T07:36:49.403Z,764
2018-08-27T07:37:51.539Z,660
2018-08-27T07:38:53.862Z,524
2018-08-27T07:39:55.867Z,616
2018-08-27T07:40:58.207Z,572
2018-08-27T07:42:00.263Z,612
2018-08-27T07:43:02.316Z,936
2018-08-27T07:44:04.417Z,876
2018-08-27T07:45:06.983Z,684
2018-08-27T07:46:09.156Z,568
2018-08-27T07:47:11.158Z,592
2018-08-27T07:48:13.178Z,684
2018-08-27T07:49:15.224Z,688
2018-08-27T07:50:16.968Z,592
2018-08-27T07:51:18.757Z,468
2018-08-27T07:52:20.632Z,500
2018-08-27T07:53:22.391Z,596
2018-08-27T07:54:24.037Z,620
2018-08-27T07:55:25.864Z,764
2018-08-27T07:56:27.540Z,1312
2018-08-27T07:57:29.199Z,1596
2018-08-27T07:58:31.001Z,1556
2018-08-27T07:59:32.648Z,1640
2018-08-27T08:00:34.296Z,1920
2018-08-27T08:01:36.091Z,1892
2018-08-27T08:02:37.804Z,1560
2018-08-27T08:03:39.727Z,1232
2018-08-27T08:04:41.837Z,1180
2018-08-27T08:05:43.392Z,872
2018-08-27T08:06:45.234Z,832
2018-08-27T08:07:46.888Z,696
2018-08-27T08:08:48.539Z,520
2018-08-27T08:09:50.376Z,524
2018-08-27T08:10:51.848Z,528
2018-08-27T08:11:53.594Z,520
2018-08-27T08:12:55.290Z,476
2018-08-27T08:13:57.195Z,572
2018-08-27T08:14:58.627Z,552
2018-08-27T08:16:00.336Z,520
2018-08-27T08:17:01.975Z,512
2018-08-27T08:18:03.569Z,488
2018-08-27T08:19:05.193Z,560
2018-08-27T08:20:06.951Z,492
2018-08-27T08:21:08.588Z,556
2018-08-27T08:22:10.146Z,584
2018-08-27T08:23:11.731Z,860
2018-08-27T08:24:13.206Z,760
2018-08-27T08:25:14.698Z,736
2018-08-27T08:26:16.299Z,832
2018-08-27T08:27:17.858Z,936
2018-08-27T08:28:19.657Z,1392
2018-08-27T08:29:21.238Z,1620
2018-08-27T08:30:22.962Z,1136
2018-08-27T08:31:24.465Z,996
2018-08-27T08:32:26.194Z,800
2018-08-27T08:33:27.767Z,728
2018-08-27T08:34:29.553Z,668
2018-08-27T08:35:31.058Z,716
2018-08-27T08:36:32.698Z,676
2018-08-27T08:37:34.375Z,744
2018-08-27T08:38:35.943Z,1116
2018-08-27T08:39:37.577Z,1256
2018-08-27T08:40:39.180Z,984
2018-08-27T08:41:40.727Z,652
2018-08-27T08:42:42.308Z,648
2018-08-27T08:43:44.091Z,864
2018-08-27T08:44:45.613Z,1708
2018-08-27T08:45:47.176Z,1412
2018-08-27T08:46:48.850Z,940
2018-08-27T08:47:50.468Z,1252
2018-08-27T08:48:51.892Z,1596
2018-08-27T08:49:53.457Z,1844
2018-08-27T08:50:54.931Z,2208
2018-08-27T08:51:56.377Z,1608
2018-08-27T08:52:58.012Z,1672
2018-08-27T08:53:59.453Z,1388
2018-08-27T08:55:01.254Z,1132
2018-08-27T08:56:02.627Z,848
2018-08-27T08:57:04.062Z,728
2018-08-27T08:58:05.554Z,748
2018-08-27T08:59:06.986Z,756
2018-08-27T09:00:08.476Z,852
2018-08-27T09:01:10.305Z,888
2018-08-27T09:02:11.768Z,764
2018-08-27T09:03:13.361Z,668
2018-08-27T09:04:14.834Z,692
2018-08-27T09:05:16.508Z,692
2018-08-27T09:06:18.019Z,900
2018-08-27T09:07:19.558Z,540
2018-08-27T09:08:21.170Z,584
2018-08-27T09:09:22.645Z,832
2018-08-27T09:10:24.106Z,796
2018-08-27T09:11:25.566Z,788
2018-08-27T09:12:27.160Z,584
2018-08-27T09:13:28.619Z,596
2018-08-27T09:14:30.474Z,604
2018-08-27T09:15:32.104Z,632
2018-08-27T09:16:33.577Z,744
2018-08-27T09:17:35.052Z,604
2018-08-27T09:18:36.649Z,556
2018-08-27T09:19:38.148Z,556
2018-08-27T09:20:39.667Z,528
2018-08-27T09:21:41.173Z,532
2018-08-27T09:22:42.576Z,616
2018-08-27T09:23:44.279Z,540
2018-08-27T09:24:45.670Z,580
2018-08-27T09:25:47.315Z,776
2018-08-27T09:26:48.767Z,912
2018-08-27T09:27:50.263Z,1004
2018-08-27T09:28:51.856Z,1688
2018-08-27T09:29:53.360Z,1260
2018-08-27T09:30:54.880Z,980
2018-08-27T09:31:56.410Z,736
2018-08-27T09:32:57.872Z,632
2018-08-27T09:33:59.303Z,612
2018-08-27T09:35:00.991Z,544
2018-08-27T09:36:02.500Z,556
2018-08-27T09:37:04.079Z,636
2018-08-27T09:38:05.844Z,684
2018-08-27T09:39:07.318Z,728
2018-08-27T09:40:08.826Z,856
2018-08-27T09:41:10.428Z,1012
2018-08-27T09:42:11.940Z,1220
2018-08-27T09:43:13.541Z,1076
2018-08-27T09:44:15.155Z,868
2018-08-27T09:45:16.698Z,788
2018-08-27T09:46:18.209Z,1032
2018-08-27T09:47:19.914Z,1324
2018-08-27T09:48:21.413Z,1712
2018-08-27T09:49:22.942Z,1656
2018-08-27T09:50:25.689Z,1832
2018-08-27T09:51:27.158Z,1780
2018-08-27T09:52:28.630Z,1952
2018-08-27T09:53:30.364Z,2548
2018-08-27T09:54:31.979Z,2188
2018-08-27T09:55:33.457Z,2156
2018-08-27T09:56:35.164Z,2544
2018-08-27T09:57:36.710Z,2088
2018-08-27T09:58:38.317Z,1892
2018-08-27T09:59:39.931Z,2068
2018-08-27T10:00:41.450Z,2200
2018-08-27T10:01:43.019Z,1944
2018-08-27T10:02:44.653Z,2092
2018-08-27T10:03:46.135Z,1944
2018-08-27T10:04:47.830Z,1720
2018-08-27T10:05:49.302Z,2292
2018-08-27T10:06:50.971Z,2092
2018-08-27T10:07:52.460Z,1216
2018-08-27T10:08:54.054Z,1080
2018-08-27T10:09:55.469Z,1488
2018-08-27T10:10:57.153Z,1548
2018-08-27T10:11:58.725Z,1832
2018-08-27T10:13:00.201Z,1488
2018-08-27T10:14:01.895Z,2456
2018-08-27T10:15:03.472Z,2392
2018-08-27T10:16:04.938Z,1260
2018-08-27T10:17:06.575Z,1268
2018-08-27T10:18:08.420Z,1280
2018-08-27T10:19:09.896Z,1808
2018-08-27T10:20:11.505Z,2072
2018-08-27T10:21:13.033Z,2172
2018-08-27T10:22:14.563Z,2068
2018-08-27T10:23:16.218Z,1652
2018-08-27T10:24:17.718Z,2004
2018-08-27T10:25:19.185Z,1932
2018-08-27T10:26:22.416Z,2128
2018-08-27T10:27:23.909Z,3300
2018-08-27T10:28:25.432Z,3408
2018-08-27T10:29:26.924Z,2072
2018-08-27T10:30:28.551Z,2516
2018-08-27T10:31:30.030Z,2140
2018-08-27T10:32:31.491Z,2724
2018-08-27T10:33:33.093Z,2276
2018-08-27T10:34:34.534Z,2480
2018-08-27T10:35:35.960Z,2276
2018-08-27T10:36:37.595Z,3132
2018-08-27T10:37:39.055Z,1952
2018-08-27T10:38:40.525Z,1400
2018-08-27T10:39:42.108Z,1648
2018-08-27T10:40:43.582Z,1920
2018-08-27T10:41:45.040Z,2148
2018-08-27T10:42:46.660Z,2340
2018-08-27T10:43:48.116Z,2176
2018-08-27T10:44:49.682Z,2008
2018-08-27T10:45:51.582Z,1952
2018-08-27T10:46:53.112Z,2588
2018-08-27T10:47:54.584Z,3424
2018-08-27T10:48:56.120Z,2648
2018-08-27T10:49:57.686Z,2012
2018-08-27T10:50:59.016Z,1440
2018-08-27T10:52:00.672Z,1044
2018-08-27T10:53:02.208Z,2748
2018-08-27T10:54:04.122Z,2544
2018-08-27T10:55:05.898Z,2760
2018-08-27T10:56:07.365Z,3428
2018-08-27T10:57:08.852Z,3308
2018-08-27T10:58:10.490Z,3280
2018-08-27T10:59:11.972Z,3280
2018-08-27T11:00:13.632Z,3036
2018-08-27T11:01:15.107Z,2712
2018-08-27T11:02:16.597Z,2148
2018-08-27T11:03:18.118Z,1696
2018-08-27T11:04:19.575Z,2280
2018-08-27T11:05:21.077Z,1904
2018-08-27T11:06:22.664Z,1488
2018-08-27T11:07:24.161Z,1376
2018-08-27T11:08:25.619Z,1408
2018-08-27T11:09:27.363Z,1188
2018-08-27T11:10:28.856Z,800
2018-08-27T11:11:30.476Z,1136
2018-08-27T11:12:32.032Z,1488
2018-08-27T11:13:33.566Z,1524
2018-08-27T11:14:35.053Z,2116
2018-08-27T11:15:36.804Z,2872
2018-08-27T11:16:38.278Z,3752
2018-08-27T11:17:39.797Z,3580
2018-08-27T11:18:41.375Z,3168
2018-08-27T11:19:43.001Z,3904
2018-08-27T11:20:44.245Z,3580
2018-08-27T11:21:45.737Z,3616
2018-08-27T11:22:47.200Z,3612
2018-08-27T11:23:48.670Z,3024
2018-08-27T11:24:50.292Z,3256
2018-08-27T11:25:51.764Z,3384
2018-08-27T11:26:53.276Z,2856
2018-08-27T11:27:54.866Z,2904
2018-08-27T11:28:56.350Z,3268
2018-08-27T11:29:58.081Z,2992
2018-08-27T11:30:59.529Z,3236
2018-08-27T11:32:01.041Z,2916
2018-08-27T11:33:02.650Z,2956
2018-08-27T11:34:04.039Z,2392
2018-08-27T11:35:05.729Z,1816
2018-08-27T11:36:07.242Z,2120
2018-08-27T11:37:09.013Z,1304
2018-08-27T11:38:10.543Z,1496
2018-08-27T11:39:12.401Z,892
2018-08-27T11:40:14.050Z,832
2018-08-27T11:41:15.482Z,1632
2018-08-27T11:42:16.921Z,2724
2018-08-27T11:43:18.638Z,2392
2018-08-27T11:44:20.121Z,1344
2018-08-27T11:45:21.606Z,872
2018-08-27T11:46:23.106Z,980
2018-08-27T11:47:24.715Z,1536
2018-08-27T11:48:26.198Z,1844
2018-08-27T11:49:27.893Z,2028
2018-08-27T11:50:29.398Z,3104
2018-08-27T11:51:30.934Z,3084
2018-08-27T11:52:32.435Z,3012
2018-08-27T11:53:34.182Z,2628
2018-08-27T11:54:35.637Z,3128
2018-08-27T11:55:37.383Z,3028
2018-08-27T11:56:38.879Z,2580
2018-08-27T11:57:40.541Z,2692
2018-08-27T11:58:42.034Z,2656
2018-08-27T11:59:43.745Z,2336
2018-08-27T12:00:45.241Z,2796
2018-08-27T12:01:46.815Z,2620
2018-08-27T12:02:48.321Z,1824
2018-08-27T12:03:49.827Z,2136
2018-08-27T12:04:51.732Z,2328
2018-08-27T12:05:53.238Z,2408
2018-08-27T12:06:54.749Z,2836
2018-08-27T12:07:56.446Z,2580
2018-08-27T12:08:58.070Z,2172
2018-08-27T12:09:59.662Z,2776
2018-08-27T12:11:01.107Z,2380
2018-08-27T12:12:02.657Z,2068
2018-08-27T12:13:04.134Z,1864
2018-08-27T12:14:05.655Z,2508
2018-08-27T12:15:07.401Z,2540
2018-08-27T12:16:08.925Z,2684
2018-08-27T12:17:10.436Z,2388
2018-08-27T12:18:12.186Z,1792
2018-08-27T12:19:13.675Z,1228
2018-08-27T12:20:15.384Z,1720
2018-08-27T12:21:16.844Z,2504
2018-08-27T12:22:18.578Z,2564
2018-08-27T12:23:20.151Z,2488
2018-08-27T12:24:21.826Z,2444
2018-08-27T12:25:23.319Z,2420
2018-08-27T12:26:24.863Z,2404
2018-08-27T12:27:26.331Z,2444
2018-08-27T12:28:27.945Z,2416
2018-08-27T12:29:29.409Z,2320
2018-08-27T12:30:31.401Z,2440
2018-08-27T12:31:32.976Z,2112
2018-08-27T12:32:34.478Z,2496
2018-08-27T12:33:35.936Z,2368
2018-08-27T12:34:37.435Z,2328
2018-08-27T12:35:39.021Z,2312
2018-08-27T12:36:40.564Z,2232
2018-08-27T12:37:42.121Z,2172
2018-08-27T12:38:43.739Z,2168
2018-08-27T12:39:45.260Z,2172
2018-08-27T12:40:46.941Z,2072
2018-08-27T12:41:48.323Z,2052
2018-08-27T12:42:49.912Z,2004
2018-08-27T12:43:51.382Z,1968
2018-08-27T12:44:52.912Z,1980
2018-08-27T12:45:54.497Z,1928
2018-08-27T12:46:55.977Z,1920
2018-08-27T12:47:57.514Z,1896
2018-08-27T12:48:59.183Z,1868
2018-08-27T12:50:00.702Z,1852
2018-08-27T12:51:02.442Z,1844
2018-08-27T12:52:03.874Z,1760
2018-08-27T12:53:05.548Z,1760
2018-08-27T12:54:06.991Z,1872
2018-08-27T12:55:08.686Z,1796
2018-08-27T12:56:10.235Z,1756
2018-08-27T12:57:11.734Z,1712
2018-08-27T12:58:13.227Z,1708
2018-08-27T12:59:15.126Z,1704
2018-08-27T13:00:16.658Z,1724
2018-08-27T13:01:18.151Z,1688
2018-08-27T13:02:19.659Z,1672
2018-08-27T13:03:21.153Z,1656
2018-08-27T13:04:22.586Z,1660
2018-08-27T13:05:24.034Z,1668
2018-08-27T13:06:25.728Z,1648
2018-08-27T13:07:27.200Z,1624
2018-08-27T13:08:28.788Z,1604
2018-08-27T13:09:30.444Z,1604
2018-08-27T13:10:31.934Z,1580
2018-08-27T13:11:33.438Z,1556
2018-08-27T13:12:34.983Z,1516
2018-08-27T13:13:36.366Z,1452
2018-08-27T13:14:37.803Z,1416
2018-08-27T13:15:39.263Z,1408
2018-08-27T13:16:40.744Z,1396
2018-08-27T13:17:43.160Z,1384
2018-08-27T13:18:44.811Z,1360
2018-08-27T13:19:46.286Z,1364
2018-08-27T13:20:47.951Z,1344
2018-08-27T13:21:49.419Z,1284
2018-08-27T13:22:50.972Z,1360
2018-08-27T13:23:52.450Z,1424
2018-08-27T13:24:54.108Z,1492
2018-08-27T13:25:55.577Z,1364
2018-08-27T13:26:57.210Z,1348
2018-08-27T13:27:58.679Z,1360
2018-08-27T13:29:00.302Z,1468
2018-08-27T13:30:01.844Z,1624
2018-08-27T13:31:03.242Z,1640
2018-08-27T13:32:04.852Z,1464
2018-08-27T13:33:06.340Z,1452
2018-08-27T13:34:07.793Z,1524
2018-08-27T13:35:09.282Z,1376
2018-08-27T13:36:10.742Z,1124
2018-08-27T13:37:12.192Z,1084
2018-08-27T13:38:13.804Z,1224
2018-08-27T13:39:15.265Z,1204
2018-08-27T13:40:16.840Z,1188
2018-08-27T13:41:18.369Z,968
2018-08-27T13:42:19.808Z,1064
2018-08-27T13:43:21.260Z,1276
2018-08-27T13:44:22.884Z,944
2018-08-27T13:45:24.375Z,792
2018-08-27T13:46:25.966Z,672
2018-08-27T13:47:27.501Z,584
2018-08-27T13:48:29.187Z,516
2018-08-27T13:49:30.752Z,452
2018-08-27T13:50:32.454Z,408
2018-08-27T13:51:33.949Z,444
2018-08-27T13:52:35.563Z,636
2018-08-27T13:53:37.031Z,796
2018-08-27T13:54:38.579Z,688
2018-08-27T13:55:40.163Z,752
2018-08-27T13:56:41.660Z,728
2018-08-27T13:57:43.175Z,884
2018-08-27T13:58:44.960Z,952
2018-08-27T13:59:46.537Z,1180
2018-08-27T14:00:48.054Z,1528
2018-08-27T14:01:49.831Z,1596
2018-08-27T14:02:51.322Z,1632
2018-08-27T14:03:53.111Z,1524
2018-08-27T14:04:54.620Z,1360
2018-08-27T14:05:56.215Z,1244
2018-08-27T14:06:58.323Z,1240
2018-08-27T14:07:59.764Z,1288
2018-08-27T14:09:01.268Z,1408
2018-08-27T14:10:02.894Z,1548
2018-08-27T14:11:04.362Z,1560
2018-08-27T14:12:05.993Z,1452
2018-08-27T14:13:07.497Z,1424
2018-08-27T14:14:09.257Z,1372
2018-08-27T14:15:10.775Z,1380
2018-08-27T14:16:12.113Z,1412
2018-08-27T14:17:13.767Z,1328
2018-08-27T14:18:15.187Z,1408
2018-08-27T14:19:16.691Z,1264
2018-08-27T14:20:18.288Z,1188
2018-08-27T14:21:19.692Z,1108
2018-08-27T14:22:21.122Z,1236
2018-08-27T14:23:22.819Z,1312
2018-08-27T14:24:24.242Z,1264
2018-08-27T14:25:25.738Z,1188
2018-08-27T14:26:27.377Z,1072
2018-08-27T14:27:28.794Z,1028
2018-08-27T14:28:30.458Z,1000
2018-08-27T14:29:31.905Z,1096
2018-08-27T14:30:33.309Z,1176
2018-08-27T14:31:34.977Z,1300
2018-08-27T14:32:36.404Z,1404
2018-08-27T14:33:37.824Z,1404
2018-08-27T14:34:39.556Z,1420
2018-08-27T14:35:41.005Z,1380
2018-08-27T14:36:42.435Z,1244
2018-08-27T14:37:44.009Z,1064
2018-08-27T14:38:45.492Z,1088
2018-08-27T14:39:46.820Z,1140
2018-08-27T14:40:48.524Z,1204
2018-08-27T14:41:50.012Z,1240
2018-08-27T14:42:51.624Z,1212
2018-08-27T14:43:53.067Z,1212
2018-08-27T14:44:54.592Z,1244
2018-08-27T14:45:56.180Z,1180
2018-08-27T14:46:57.600Z,1156
2018-08-27T14:47:59.046Z,1224
2018-08-27T14:49:00.674Z,1216
2018-08-27T14:50:02.144Z,1172
2018-08-27T14:51:03.566Z,1212
2018-08-27T14:52:05.191Z,1172
2018-08-27T14:53:06.611Z,1140
2018-08-27T14:54:08.316Z,888
2018-08-27T14:55:09.755Z,740
2018-08-27T14:56:11.512Z,868
2018-08-27T14:57:12.835Z,836
2018-08-27T14:58:14.399Z,852
2018-08-27T14:59:15.856Z,852
2018-08-27T15:00:17.952Z,872
2018-08-27T15:01:19.433Z,860
2018-08-27T15:02:21.080Z,880
2018-08-27T15:03:22.635Z,920
2018-08-27T15:04:24.140Z,948
2018-08-27T15:05:25.640Z,1012
2018-08-27T15:06:27.118Z,1008
2018-08-27T15:07:28.587Z,1012
2018-08-27T15:08:30.285Z,1036
2018-08-27T15:09:31.748Z,948
2018-08-27T15:10:33.383Z,860
2018-08-27T15:11:34.878Z,756
2018-08-27T15:12:36.449Z,888
2018-08-27T15:13:37.862Z,976
2018-08-27T15:14:39.533Z,964
2018-08-27T15:15:41.017Z,904
2018-08-27T15:16:42.563Z,760
2018-08-27T15:17:44.157Z,636
2018-08-27T15:18:45.609Z,580
2018-08-27T15:19:47.140Z,600
2018-08-27T15:20:48.905Z,516
2018-08-27T15:21:50.392Z,524
2018-08-27T15:22:51.853Z,708
2018-08-27T15:23:53.545Z,856
2018-08-27T15:24:54.974Z,840
2018-08-27T15:25:56.385Z,800
2018-08-27T15:26:58.052Z,748
2018-08-27T15:27:59.478Z,752
2018-08-27T15:29:01.174Z,808
2018-08-27T15:30:02.579Z,808
2018-08-27T15:31:04.221Z,776
2018-08-27T15:32:05.667Z,760
2018-08-27T15:33:07.310Z,780
2018-08-27T15:34:08.719Z,768
2018-08-27T15:35:10.395Z,852
2018-08-27T15:36:12.203Z,896
2018-08-27T15:37:13.620Z,796
2018-08-27T15:38:15.360Z,724
2018-08-27T15:39:16.742Z,700
2018-08-27T15:40:18.161Z,708
2018-08-27T15:41:19.851Z,780
2018-08-27T15:42:21.286Z,816
2018-08-27T15:43:22.660Z,696
2018-08-27T15:44:24.234Z,808
2018-08-27T15:45:25.576Z,808
2018-08-27T15:46:26.990Z,820
2018-08-27T15:47:28.694Z,764
2018-08-27T15:48:30.105Z,748
2018-08-27T15:49:31.884Z,796
2018-08-27T15:50:33.231Z,816
2018-08-27T15:51:34.596Z,772
2018-08-27T15:52:36.310Z,756
2018-08-27T15:53:37.729Z,700
2018-08-27T15:54:39.513Z,708
2018-08-27T15:55:41.255Z,644
2018-08-27T15:56:42.680Z,688
2018-08-27T15:57:44.081Z,632
2018-08-27T15:58:45.768Z,492
2018-08-27T15:59:47.267Z,528
2018-08-27T16:00:48.671Z,440
2018-08-27T16:01:50.295Z,360
2018-08-27T16:02:51.697Z,336
2018-08-27T16:03:53.109Z,304
2018-08-27T16:04:54.821Z,284
2018-08-27T16:05:56.301Z,268
2018-08-27T16:06:57.630Z,220
2018-08-27T16:07:59.144Z,236
2018-08-27T16:09:00.552Z,224
2018-08-27T16:10:01.948Z,192
2018-08-27T16:11:03.463Z,156
2018-08-27T16:12:04.923Z,160
2018-08-27T16:13:06.552Z,184
2018-08-27T16:14:07.959Z,196
2018-08-27T16:15:09.636Z,200
2018-08-27T16:16:11.039Z,192
2018-08-27T16:17:12.440Z,248
2018-08-27T16:18:13.954Z,320
2018-08-27T16:19:15.374Z,256
2018-08-27T16:20:17.670Z,216
2018-08-27T16:21:19.306Z,256
2018-08-27T16:22:20.695Z,188
2018-08-27T16:23:22.116Z,212
2018-08-27T16:24:23.629Z,268
2018-08-27T16:25:25.042Z,368
2018-08-27T16:26:26.460Z,432
2018-08-27T16:27:28.146Z,476
2018-08-27T16:28:29.952Z,516
2018-08-27T16:29:31.348Z,512
2018-08-27T16:30:32.877Z,484
2018-08-27T16:31:34.284Z,492
2018-08-27T16:32:35.780Z,468
2018-08-27T16:33:37.210Z,460
2018-08-27T16:34:38.623Z,480
2018-08-27T16:35:40.285Z,468
2018-08-27T16:36:41.693Z,444
2018-08-27T16:37:43.097Z,456
2018-08-27T16:38:44.500Z,444
2018-08-27T16:39:45.960Z,408
2018-08-27T16:40:47.487Z,380
2018-08-27T16:41:48.889Z,388
2018-08-27T16:42:50.300Z,384
2018-08-27T16:43:52.097Z,372
2018-08-27T16:44:53.508Z,344
2018-08-27T16:45:54.916Z,340
2018-08-27T16:46:56.539Z,344
2018-08-27T16:47:57.947Z,344
2018-08-27T16:48:59.630Z,340
2018-08-27T16:50:01.060Z,332
2018-08-27T16:51:02.713Z,332
2018-08-27T16:52:04.116Z,352
2018-08-27T16:53:05.661Z,376
2018-08-27T16:54:07.237Z,380
2018-08-27T16:55:08.650Z,364
2018-08-27T16:56:10.054Z,372
2018-08-27T16:57:11.557Z,380
2018-08-27T16:58:12.960Z,340
2018-08-27T16:59:14.667Z,308
2018-08-27T17:00:16.113Z,284
2018-08-27T17:01:17.735Z,252
2018-08-27T17:02:19.145Z,244
2018-08-27T17:03:20.818Z,208
2018-08-27T17:04:22.228Z,176
2018-08-27T17:05:23.916Z,172
2018-08-27T17:06:25.336Z,228
2018-08-27T17:07:26.985Z,252
2018-08-27T17:08:28.399Z,228
2018-08-27T17:09:30.075Z,184
2018-08-27T17:10:31.488Z,128
2018-08-27T17:11:33.157Z,84
2018-08-27T17:12:34.560Z,68
2018-08-27T17:13:36.243Z,56
2018-08-27T17:14:37.664Z,48
2018-08-27T17:15:39.326Z,56
2018-08-27T17:16:40.739Z,72
2018-08-27T17:17:42.414Z,92
2018-08-27T17:18:43.817Z,108
2018-08-27T17:19:45.513Z,136
2018-08-27T17:20:46.918Z,140
2018-08-27T17:21:48.585Z,136
2018-08-27T17:22:49.993Z,152
2018-08-27T17:23:51.672Z,164
2018-08-27T17:24:53.078Z,160
2018-08-27T17:25:54.759Z,144
2018-08-27T17:26:56.163Z,136
2018-08-27T17:27:57.568Z,120
2018-08-27T17:28:59.078Z,104
2018-08-27T17:30:00.481Z,80
2018-08-27T17:31:01.990Z,96
2018-08-27T17:32:03.740Z,88
2018-08-27T17:33:05.191Z,72
2018-08-27T17:34:06.544Z,76
2018-08-27T17:35:08.132Z,84
2018-08-27T17:36:09.531Z,76
2018-08-27T17:37:10.932Z,68
2018-08-27T17:38:12.450Z,52
2018-08-27T17:39:13.912Z,44
2018-08-27T17:40:15.559Z,40
2018-08-27T17:41:16.950Z,36
2018-08-27T17:42:18.621Z,32
2018-08-27T17:43:20.028Z,28
2018-08-27T17:44:21.708Z,28
2018-08-27T17:45:23.170Z,28
2018-08-27T17:46:24.794Z,28
2018-08-27T17:47:26.198Z,36
2018-08-27T17:48:29.442Z,48
2018-08-27T17:49:30.961Z,56
2018-08-27T17:50:32.365Z,60
2018-08-27T17:51:33.816Z,88
2018-08-27T17:52:35.280Z,96
2018-08-27T17:53:36.788Z,92
2018-08-27T17:54:38.193Z,84
2018-08-27T17:55:39.807Z,76
2018-08-27T17:56:41.226Z,64
2018-08-27T17:57:42.684Z,60
2018-08-27T17:58:44.398Z,60
2018-08-27T17:59:45.740Z,48
2018-08-27T18:00:47.146Z,40
2018-08-27T18:01:48.666Z,28
2018-08-27T18:02:52.145Z,24
2018-08-27T18:03:53.546Z,24
2018-08-27T18:04:55.312Z,24
2018-08-27T18:05:56.639Z,20
2018-08-27T18:06:58.317Z,16
2018-08-27T18:07:59.715Z,16
2018-08-27T18:09:01.410Z,12
2018-08-27T18:10:02.801Z,12
2018-08-27T18:11:04.491Z,12
2018-08-27T18:12:05.946Z,12
2018-08-27T18:13:07.348Z,12
2018-08-27T18:14:09.026Z,12
2018-08-27T18:15:10.439Z,20
2018-08-27T18:16:11.839Z,20
2018-08-27T18:17:13.336Z,20
2018-08-27T18:18:14.735Z,24
2018-08-27T18:19:16.424Z,24
2018-08-27T18:20:17.820Z,24
2018-08-27T18:21:19.508Z,16
2018-08-27T18:22:20.922Z,16
2018-08-27T18:23:22.597Z,12
2018-08-27T18:24:24.092Z,12
2018-08-27T18:25:25.783Z,8
2018-08-27T18:26:27.331Z,8
2018-08-27T18:27:28.967Z,4
2018-08-27T18:28:30.459Z,4
2018-08-27T18:29:32.368Z,4
2018-08-27T18:30:33.733Z,4
2018-08-27T18:31:35.137Z,0
2018-08-27T18:32:36.540Z,4
2018-08-27T18:33:38.220Z,4
2018-08-27T18:34:39.630Z,0
2018-08-27T18:35:41.030Z,4
2018-08-27T18:36:42.571Z,4
2018-08-27T18:37:43.973Z,4
2018-08-27T18:38:45.373Z,4
2018-08-27T18:39:47.074Z,4
2018-08-27T18:40:48.476Z,4
2018-08-27T18:41:50.155Z,0
2018-08-27T18:42:51.556Z,0
2018-08-27T18:43:53.442Z,0
2018-08-27T18:44:54.847Z,0
2018-08-27T18:45:56.535Z,0
2018-08-27T18:46:57.936Z,0
2018-08-27T18:47:59.333Z,0
2018-08-27T18:49:00.851Z,0
2018-08-27T18:50:02.254Z,0
2018-08-27T18:51:03.658Z,0
2018-08-27T18:52:05.175Z,0
2018-08-27T18:53:06.576Z,0
2018-08-27T18:54:07.975Z,0
2018-08-27T18:55:09.534Z,0
2018-08-27T18:56:11.073Z,0
2018-08-27T18:57:12.581Z,0
2018-08-27T18:58:13.980Z,0
2018-08-27T18:59:15.385Z,0
2018-08-27T19:00:16.900Z,0
2018-08-27T19:01:18.301Z,0
2018-08-27T19:02:19.886Z,0
2018-08-27T19:03:21.473Z,0
2018-08-27T19:04:22.880Z,0
2018-08-27T19:05:24.663Z,0
2018-08-27T19:06:26.215Z,0
2018-08-27T19:07:27.566Z,0
2018-08-27T19:08:28.969Z,0
2018-08-27T19:09:30.478Z,0
2018-08-27T19:10:31.889Z,0
2018-08-27T19:11:33.285Z,0
2018-08-27T19:12:34.947Z,0
2018-08-27T19:13:36.277Z,0
2018-08-27T19:14:37.695Z,0
2018-08-27T19:15:39.320Z,0
2018-08-27T19:16:40.674Z,0
2018-08-27T19:17:42.280Z,0
2018-08-27T19:18:43.618Z,0
2018-08-27T19:19:45.301Z,0
2018-08-27T19:20:46.740Z,0
2018-08-27T19:21:48.412Z,0
2018-08-27T19:22:49.819Z,0
2018-08-27T19:23:51.463Z,0
2018-08-27T19:24:52.867Z,0
2018-08-27T19:25:54.549Z,0
2018-08-27T19:26:55.957Z,0
2018-08-27T19:27:57.636Z,0
2018-08-27T19:28:59.065Z,0
2018-08-27T19:30:00.441Z,0
2018-08-27T19:31:01.967Z,0
2018-08-27T19:32:03.374Z,0
2018-08-27T19:33:04.794Z,0
2018-08-27T19:34:06.277Z,0
2018-08-27T19:35:07.679Z,0
2018-08-27T19:36:09.304Z,0
2018-08-27T19:37:11.875Z,0
2018-08-27T19:38:13.218Z,0
2018-08-27T19:39:14.708Z,0
2018-08-27T19:40:16.174Z,0
2018-08-27T19:41:17.576Z,0
2018-08-27T19:42:19.004Z,0
2018-08-27T19:43:20.964Z,0
2018-08-27T19:44:22.369Z,0
2018-08-27T19:45:23.767Z,0
2018-08-27T19:46:25.507Z,0
2018-08-27T19:47:26.813Z,0
2018-08-27T19:48:28.219Z,0
2018-08-27T19:49:29.745Z,0
2018-08-27T19:50:31.144Z,0
2018-08-27T19:51:32.576Z,0
2018-08-27T19:52:34.108Z,0
2018-08-27T19:53:35.505Z,0
2018-08-27T19:54:36.908Z,0
2018-08-27T19:55:38.574Z,0
2018-08-27T19:56:39.984Z,0
2018-08-27T19:57:41.662Z,0
2018-08-27T19:58:43.063Z,0
2018-08-27T19:59:44.738Z,0
2018-08-27T20:00:46.093Z,0
2018-08-27T20:01:47.677Z,0
2018-08-27T20:02:49.083Z,0
2018-08-27T20:03:50.710Z,0
2018-08-27T20:04:52.115Z,0
2018-08-27T20:05:53.798Z,0
2018-08-27T20:06:55.198Z,0
2018-08-27T20:07:56.885Z,0
2018-08-27T20:08:58.289Z,0
2018-08-27T20:09:59.969Z,0
2018-08-27T20:11:01.372Z,0
2018-08-27T20:12:03.054Z,0
2018-08-27T20:13:04.457Z,0
2018-08-27T20:14:06.170Z,0
2018-08-27T20:15:07.575Z,0
2018-08-27T20:16:09.229Z,0
2018-08-27T20:17:10.681Z,0
2018-08-27T20:18:12.323Z,0
2018-08-27T20:19:13.724Z,0
2018-08-27T20:20:15.125Z,0
2018-08-27T20:21:16.552Z,0
2018-08-27T20:22:17.960Z,0
2018-08-27T20:23:19.513Z,0
2018-08-27T20:24:20.913Z,0
2018-08-27T20:25:22.334Z,0
2018-08-27T20:26:23.862Z,0
2018-08-27T20:27:25.560Z,0
2018-08-27T20:28:26.974Z,0
2018-08-27T20:29:28.571Z,0
2018-08-27T20:30:29.968Z,0
2018-08-27T20:31:31.658Z,0
2018-08-27T20:32:33.059Z,0
2018-08-27T20:33:34.837Z,0
2018-08-27T20:34:36.230Z,0
2018-08-27T20:35:37.860Z,0
2018-08-27T20:36:39.297Z,0
2018-08-27T20:37:40.909Z,0
2018-08-27T20:38:42.314Z,0
2018-08-27T20:39:44.061Z,0
2018-08-27T20:40:45.436Z,0
2018-08-27T20:41:47.081Z,0
2018-08-27T20:42:48.486Z,0
2018-08-27T20:43:49.963Z,0
2018-08-27T20:44:51.367Z,0
2018-08-27T20:45:52.882Z,0
2018-08-27T20:46:54.280Z,0
2018-08-27T20:47:55.685Z,0
2018-08-27T20:48:57.425Z,0
2018-08-27T20:49:59.405Z,0
2018-08-27T20:51:00.945Z,0
2018-08-27T20:52:02.170Z,0
2018-08-27T20:53:03.764Z,0
2018-08-27T20:54:05.174Z,0